SBBR/BSB METAR and TAF weather

Enter ICAO airport designator
Station Type Date Time Source
SBBR METAR 2019/04/25 12:00 UTC NOAA

SBBR 251200Z 08013KT CAVOK 23/17 Q1022


Station Type Date Time Source
SBBR Decoded METAR 2019/04/25 12:00 UTC NOAA

Brasilia Aeroporto , Brazil (SBBR) 15-52S 047-56W 1061M
Apr 25, 2019 - 08:00 AM EDT / 2019.04.25 1200 UTC
Wind: from the E (080 degrees) at 15 MPH (13 KT):0
Visibility: greater than 7 mile(s):0
Temperature: 73 F (23 C)
Dew Point: 62 F (17 C)
Relative Humidity: 68%
Pressure (altimeter): 30.18 in. Hg (1022 hPa)
ob: SBBR 251200Z 08013KT CAVOK 23/17 Q1022
cycle: 12

Station Type Date Time Source
SBBR TAF 2019/04/25 12:59 UTC NOAA

TAF SBBR 251000Z 2512/2612 08005KT 9999 FEW020 TX29/2518Z TN19/2608Z
FM251500 07010KT 9999 SCT030 FEW040TCU PROB30 2518/2519 VCSH
FM252100 09005KT NSW CAVOK
RMK PDS

Example: see airport list